Time;durP1;ratioP1;P1;durP2;ratioP2;P2;SDS_P1;SDS_P2;PMS_P1;PMS_P2;Temp;Humidity;BMP_temperature;BMP_pressure;BME280_temperature;BME280_humidity;BME280_pressure;Samples;Min_cycle;Max_cycle;Signal;HPM_P1;HPM_P2
2023/03/05 00:00:36;;;;;;;57.80;28.95;;;0.80;98.00;;;;;;5026772;28;20022;-66
2023/03/05 00:03:02;;;;;;;68.15;27.88;;;0.70;98.00;;;;;;5028497;28;20156;-66
2023/03/05 00:05:27;;;;;;;65.65;27.67;;;0.70;98.00;;;;;;5028352;28;20311;-66
2023/03/05 00:07:53;;;;;;;93.07;42.67;;;0.60;98.00;;;;;;5037221;28;20026;-67
2023/03/05 00:10:18;;;;;;;59.22;27.92;;;0.60;98.00;;;;;;5021632;28;20038;-66
2023/03/05 00:12:44;;;;;;;57.10;26.27;;;0.60;98.00;;;;;;5032495;28;20052;-66
2023/03/05 00:15:10;;;;;;;58.78;26.35;;;0.60;98.00;;;;;;5033802;28;20469;-66
2023/03/05 00:17:38;;;;;;;57.70;26.33;;;0.60;98.00;;;;;;5033970;28;20441;-66
2023/03/05 00:20:04;;;;;;;54.88;25.77;;;0.60;98.00;;;;;;5035285;28;20476;-67
2023/03/05 00:22:30;;;;;;;54.58;25.63;;;0.60;98.00;;;;;;5034210;28;20017;-66
2023/03/05 00:24:55;;;;;;;58.35;26.23;;;0.60;98.00;;;;;;5038963;28;20353;-66
2023/03/05 00:27:21;;;;;;;53.22;26.90;;;0.60;98.00;;;;;;5041090;28;20362;-66
2023/03/05 00:29:47;;;;;;;59.90;26.52;;;0.60;98.00;;;;;;5029265;28;20156;-66
2023/03/05 00:32:12;;;;;;;54.33;24.90;;;0.60;98.00;;;;;;5024749;28;20059;-66
2023/03/05 00:34:38;;;;;;;54.08;26.00;;;0.60;98.00;;;;;;5032613;28;20029;-66
2023/03/05 00:37:03;;;;;;;59.65;27.75;;;0.60;98.00;;;;;;5028546;28;20457;-66
2023/03/05 00:39:29;;;;;;;57.83;27.92;;;0.60;98.00;;;;;;5037125;28;20395;-67
2023/03/05 00:41:54;;;;;;;60.75;27.65;;;0.60;98.00;;;;;;5026841;28;20026;-67
2023/03/05 00:44:20;;;;;;;58.75;26.88;;;0.60;98.00;;;;;;5026253;28;20322;-66
2023/03/05 00:46:46;;;;;;;59.97;25.70;;;0.60;98.00;;;;;;5016960;28;20359;-67
2023/03/05 00:49:12;;;;;;;56.65;25.90;;;0.60;98.00;;;;;;5023881;28;20026;-66
2023/03/05 00:51:38;;;;;;;37.58;18.58;;;0.60;98.00;;;;;;5028085;28;20442;-66
2023/03/05 00:54:04;;;;;;;32.97;15.88;;;0.60;98.00;;;;;;5039138;28;20111;-66
2023/03/05 00:56:30;;;;;;;52.10;23.08;;;0.70;98.00;;;;;;5048201;28;20052;-66
2023/03/05 00:58:58;;;;;;;51.33;24.00;;;0.70;98.00;;;;;;5029531;28;20434;-66
2023/03/05 01:01:24;;;;;;;49.97;24.05;;;0.60;98.00;;;;;;5034576;28;20452;-66
2023/03/05 01:03:50;;;;;;;46.40;21.70;;;0.60;98.00;;;;;;5031038;28;20033;-66
2023/03/05 01:06:16;;;;;;;50.70;23.02;;;0.50;98.00;;;;;;5038783;28;20025;-66
2023/03/05 01:08:43;;;;;;;53.90;23.50;;;0.50;97.90;;;;;;5032137;28;20025;-66
2023/03/05 01:11:10;;;;;;;53.00;24.83;;;0.50;97.90;;;;;;5037009;28;20037;-66
2023/03/05 01:13:36;;;;;;;53.75;23.65;;;0.50;98.00;;;;;;5039125;28;20422;-66
2023/03/05 01:16:02;;;;;;;48.05;22.30;;;0.50;98.00;;;;;;5037144;28;20098;-66
2023/03/05 01:18:27;;;;;;;47.47;21.17;;;0.40;98.00;;;;;;5028007;28;20025;-67
2023/03/05 01:20:53;;;;;;;38.97;17.52;;;0.40;98.00;;;;;;5027436;28;20033;-66
2023/03/05 01:23:19;;;;;;;37.55;17.23;;;0.30;98.00;;;;;;5030242;28;20021;-66
2023/03/05 01:25:45;;;;;;;33.42;15.82;;;0.40;98.00;;;;;;5038401;28;20036;-67
2023/03/05 01:28:13;;;;;;;36.67;17.55;;;0.60;98.00;;;;;;5037043;28;20353;-66
2023/03/05 01:30:39;;;;;;;40.67;18.05;;;0.60;98.00;;;;;;5043554;28;20842;-67
2023/03/05 01:33:04;;;;;;;42.65;20.42;;;0.60;98.00;;;;;;5027471;28;20113;-66
2023/03/05 01:35:30;;;;;;;51.00;21.05;;;0.70;98.00;;;;;;5017083;28;20167;-66
2023/03/05 01:37:55;;;;;;;43.05;19.55;;;0.70;98.00;;;;;;5029689;28;20049;-66
2023/03/05 01:40:29;;;;;;;46.95;20.27;;;0.60;98.00;;;;;;5033767;28;20025;-67
2023/03/05 01:43:07;;;;;;;43.95;19.15;;;0.60;98.00;;;;;;5032095;28;20087;-66
2023/03/05 01:45:33;;;;;;;41.05;18.08;;;0.60;98.00;;;;;;5032551;28;20037;-66
2023/03/05 01:47:58;;;;;;;40.88;19.58;;;0.50;98.00;;;;;;5020700;28;20045;-66
2023/03/05 01:50:25;;;;;;;40.65;18.63;;;0.60;98.00;;;;;;5034761;28;20035;-66
2023/03/05 01:53:11;;;;;;;44.63;20.40;;;0.70;98.00;;;;;;5031024;28;20026;-67
2023/03/05 01:55:36;;;;;;;45.92;19.55;;;0.70;98.00;;;;;;5022560;28;20078;-66
2023/03/05 01:58:06;;;;;;;37.25;17.23;;;0.70;98.00;;;;;;5034759;28;20378;-66
2023/03/05 02:00:38;;;;;;;40.72;17.70;;;0.70;98.00;;;;;;5026559;28;20123;-66
2023/03/05 02:03:08;;;;;;;40.40;17.88;;;0.70;98.00;;;;;;5029979;28;20037;-65
2023/03/05 02:05:36;;;;;;;38.22;18.33;;;0.70;98.00;;;;;;5046308;28;20086;-65
2023/03/05 02:08:05;;;;;;;41.20;18.92;;;0.80;98.00;;;;;;5024216;28;20021;-67
2023/03/05 02:10:37;;;;;;;41.95;17.25;;;0.80;98.00;;;;;;5033001;28;20040;-67
2023/03/05 02:13:08;;;;;;;45.15;18.65;;;0.80;98.00;;;;;;5040153;28;20137;-67
2023/03/05 02:15:34;;;;;;;37.38;17.58;;;0.80;98.00;;;;;;5030601;28;20115;-67
2023/03/05 02:18:00;;;;;;;40.25;18.45;;;0.80;98.00;;;;;;5019610;28;20026;-66
2023/03/05 02:20:42;;;;;;;38.30;17.40;;;0.90;98.00;;;;;;5031379;28;20373;-67
2023/03/05 02:23:09;;;;;;;45.08;18.52;;;0.80;97.70;;;;;;5032943;28;20037;-67
2023/03/05 02:25:35;;;;;;;39.55;18.05;;;0.80;97.30;;;;;;5032835;28;20022;-67
2023/03/05 02:28:29;;;;;;;37.85;18.15;;;0.80;97.40;;;;;;5032393;28;20022;-66
2023/03/05 02:30:55;;;;;;;39.55;18.85;;;0.80;97.60;;;;;;5033891;28;20044;-66
2023/03/05 02:33:23;;;;;;;35.30;15.95;;;0.80;98.00;;;;;;5019628;28;20121;-67
2023/03/05 02:35:48;;;;;;;41.33;18.98;;;0.80;97.50;;;;;;5016329;28;20322;-67
2023/03/05 02:38:17;;;;;;;56.90;26.23;;;0.70;97.70;;;;;;5024887;28;20026;-65
2023/03/05 02:40:43;;;;;;;56.55;26.45;;;0.80;98.00;;;;;;5031178;28;20148;-66
2023/03/05 02:43:12;;;;;;;59.53;26.08;;;0.70;98.00;;;;;;5029008;28;20101;-66
2023/03/05 02:45:37;;;;;;;64.00;27.65;;;0.70;98.00;;;;;;5030717;28;20029;-67
2023/03/05 02:48:03;;;;;;;59.10;27.45;;;0.70;98.00;;;;;;5031174;28;20376;-66
2023/03/05 02:50:30;;;;;;;56.80;26.52;;;0.70;98.00;;;;;;5034682;28;20032;-66
2023/03/05 02:52:56;;;;;;;54.00;24.30;;;0.70;98.00;;;;;;5031264;28;20029;-66
2023/03/05 02:55:22;;;;;;;49.80;23.45;;;0.60;98.00;;;;;;5032006;28;20040;-66
2023/03/05 02:57:47;;;;;;;54.92;24.95;;;0.70;98.00;;;;;;5030952;28;20030;-66
2023/03/05 03:00:13;;;;;;;50.13;22.70;;;0.80;98.00;;;;;;5033789;28;20045;-66
2023/03/05 03:02:39;;;;;;;46.33;20.50;;;0.90;98.00;;;;;;5032588;28;20038;-65
2023/03/05 03:05:05;;;;;;;39.88;21.20;;;1.00;98.00;;;;;;5022053;28;20018;-66
2023/03/05 03:07:33;;;;;;;54.42;24.58;;;0.90;98.00;;;;;;5025011;28;20029;-66
2023/03/05 03:09:58;;;;;;;51.75;24.25;;;0.90;98.00;;;;;;5033617;28;20084;-66
2023/03/05 03:12:24;;;;;;;48.63;23.58;;;0.80;98.00;;;;;;5025960;28;20540;-66
2023/03/05 03:14:49;;;;;;;53.80;25.40;;;0.80;98.00;;;;;;5033810;28;20423;-66
2023/03/05 03:17:16;;;;;;;54.08;26.55;;;0.80;98.00;;;;;;5024343;28;20058;-66
2023/03/05 03:19:42;;;;;;;57.08;26.30;;;0.80;98.00;;;;;;5036341;28;20080;-66
2023/03/05 03:22:10;;;;;;;53.58;24.45;;;0.80;98.00;;;;;;5033090;28;20292;-66
2023/03/05 03:24:39;;;;;;;51.75;25.08;;;0.90;98.00;;;;;;5033485;28;20092;-67
2023/03/05 03:27:05;;;;;;;50.13;23.73;;;0.80;98.00;;;;;;5033159;28;20056;-66
2023/03/05 03:29:32;;;;;;;50.83;24.45;;;0.90;98.00;;;;;;5034416;28;20033;-66
2023/03/05 03:31:58;;;;;;;56.47;25.10;;;0.90;98.00;;;;;;5032234;28;20025;-67
2023/03/05 03:34:24;;;;;;;43.85;20.48;;;0.90;98.00;;;;;;5030521;28;20128;-67
2023/03/05 03:36:51;;;;;;;45.60;21.48;;;1.00;98.00;;;;;;5029633;28;20112;-66
2023/03/05 03:39:18;;;;;;;51.13;24.27;;;1.00;98.00;;;;;;5016556;28;20030;-67
2023/03/05 03:41:46;;;;;;;50.85;23.27;;;1.00;98.00;;;;;;5017793;28;20081;-66
2023/03/05 03:44:13;;;;;;;49.30;22.30;;;1.00;98.00;;;;;;5033882;28;20021;-66
2023/03/05 03:46:39;;;;;;;50.50;24.25;;;0.90;98.00;;;;;;5028767;28;20124;-66
2023/03/05 03:49:07;;;;;;;45.78;21.42;;;0.90;98.00;;;;;;5032665;28;20057;-67
2023/03/05 03:51:33;;;;;;;43.65;21.08;;;1.00;98.00;;;;;;5032450;28;20079;-66
2023/03/05 03:53:59;;;;;;;41.65;21.15;;;1.00;98.00;;;;;;5031928;28;20026;-66
2023/03/05 03:56:25;;;;;;;47.13;20.42;;;1.00;98.00;;;;;;5036396;28;20025;-66
2023/03/05 03:58:52;;;;;;;38.60;19.20;;;1.00;98.00;;;;;;5034340;28;20042;-66
2023/03/05 04:01:18;;;;;;;39.00;18.35;;;0.90;98.00;;;;;;5033009;28;20308;-67
2023/03/05 04:03:44;;;;;;;40.35;18.30;;;1.00;98.00;;;;;;5033540;28;20538;-66
2023/03/05 04:06:10;;;;;;;39.22;18.15;;;1.00;98.00;;;;;;5034356;28;20033;-66
2023/03/05 04:08:38;;;;;;;40.28;19.65;;;0.90;98.00;;;;;;5030012;28;20076;-66
2023/03/05 04:11:05;;;;;;;34.90;18.25;;;1.00;98.00;;;;;;5032828;28;20081;-66
2023/03/05 04:13:30;;;;;;;40.13;17.63;;;1.00;98.00;;;;;;5027079;28;20022;-66
2023/03/05 04:15:56;;;;;;;33.95;16.83;;;1.00;98.00;;;;;;5026971;28;20481;-66
2023/03/05 04:18:22;;;;;;;31.55;16.85;;;1.10;98.00;;;;;;5026594;28;20067;-66
2023/03/05 04:20:47;;;;;;;34.13;16.90;;;1.10;98.00;;;;;;5036776;28;20021;-66
2023/03/05 04:23:14;;;;;;;38.15;17.35;;;1.10;98.00;;;;;;5036276;28;20466;-66
2023/03/05 04:25:39;;;;;;;34.10;16.55;;;1.00;98.00;;;;;;5044857;28;20021;-66
2023/03/05 04:28:05;;;;;;;36.38;18.40;;;1.00;97.90;;;;;;5031822;28;20037;-66
2023/03/05 04:30:30;;;;;;;39.75;18.13;;;0.90;98.00;;;;;;5033454;28;20032;-66
2023/03/05 04:32:59;;;;;;;40.45;18.52;;;0.90;98.00;;;;;;5032075;28;20038;-67
2023/03/05 04:35:25;;;;;;;40.53;18.75;;;0.80;97.20;;;;;;5021718;28;20375;-66
2023/03/05 04:37:53;;;;;;;43.58;18.92;;;0.80;96.90;;;;;;5032415;28;20057;-66
2023/03/05 04:40:19;;;;;;;45.47;19.80;;;0.70;96.60;;;;;;5023095;28;20487;-66
2023/03/05 04:42:44;;;;;;;37.40;18.10;;;0.70;96.70;;;;;;5030498;28;20112;-66
2023/03/05 04:45:11;;;;;;;47.47;21.50;;;0.70;96.20;;;;;;5028266;28;20025;-66
2023/03/05 04:47:37;;;;;;;43.10;19.75;;;0.60;96.80;;;;;;5031702;28;20029;-66
2023/03/05 04:50:04;;;;;;;41.63;19.85;;;0.60;96.30;;;;;;5023229;28;20033;-66
2023/03/05 04:52:33;;;;;;;41.95;19.25;;;0.60;96.80;;;;;;5025374;28;20368;-66
2023/03/05 04:54:58;;;;;;;39.17;20.13;;;0.60;96.60;;;;;;5036950;28;20044;-66
2023/03/05 04:57:24;;;;;;;41.83;19.75;;;0.60;95.60;;;;;;5032435;28;20038;-66
2023/03/05 04:59:49;;;;;;;44.03;19.85;;;0.60;95.10;;;;;;5034502;28;20191;-66
2023/03/05 05:02:15;;;;;;;44.80;19.27;;;0.60;94.40;;;;;;5032546;28;20025;-68
2023/03/05 05:04:43;;;;;;;39.35;18.70;;;0.60;94.00;;;;;;5028551;28;20048;-68
2023/03/05 05:07:10;;;;;;;42.08;20.27;;;0.80;94.40;;;;;;5025812;28;20346;-67
2023/03/05 05:09:37;;;;;;;37.42;18.83;;;0.80;95.70;;;;;;5018129;28;20018;-67
2023/03/05 05:12:03;;;;;;;46.22;20.30;;;0.80;96.70;;;;;;5022707;28;20049;-67
2023/03/05 05:14:28;;;;;;;44.88;22.27;;;0.80;96.10;;;;;;5035348;28;20022;-67
2023/03/05 05:16:54;;;;;;;45.08;22.30;;;0.70;94.70;;;;;;5032087;28;20026;-67
2023/03/05 05:19:19;;;;;;;43.17;21.50;;;0.70;93.60;;;;;;5028825;28;20101;-67
2023/03/05 05:21:46;;;;;;;48.75;19.95;;;0.70;93.00;;;;;;5027989;28;20030;-66
2023/03/05 05:24:17;;;;;;;35.90;16.45;;;0.70;92.40;;;;;;5033048;28;20399;-66
2023/03/05 05:26:42;;;;;;;39.13;18.42;;;0.70;92.20;;;;;;5032639;28;20033;-67
2023/03/05 05:29:08;;;;;;;41.05;19.42;;;0.70;92.30;;;;;;5034893;28;20105;-67
2023/03/05 05:31:33;;;;;;;43.45;21.15;;;0.70;92.10;;;;;;5023230;28;20031;-67
2023/03/05 05:33:59;;;;;;;45.63;21.13;;;0.70;92.20;;;;;;5033550;28;20083;-67
2023/03/05 05:36:25;;;;;;;39.08;18.42;;;0.70;92.60;;;;;;5028484;28;20091;-67
2023/03/05 05:38:50;;;;;;;38.22;19.27;;;0.70;94.70;;;;;;5032618;28;20032;-67
2023/03/05 05:41:17;;;;;;;46.90;22.40;;;0.70;96.20;;;;;;5022358;28;20022;-67
2023/03/05 05:43:44;;;;;;;45.10;21.95;;;0.70;95.40;;;;;;5032612;28;20326;-67
2023/03/05 05:46:15;;;;;;;57.17;26.77;;;0.60;93.50;;;;;;5023185;28;20553;-67
2023/03/05 05:48:41;;;;;;;50.08;24.67;;;0.60;93.40;;;;;;5034673;28;20042;-66
2023/03/05 05:51:16;;;;;;;47.03;21.75;;;0.70;93.60;;;;;;5029261;28;20087;-66
2023/03/05 05:53:42;;;;;;;43.92;21.33;;;0.80;94.20;;;;;;5031886;28;20485;-66
2023/03/05 05:56:09;;;;;;;139.60;69.32;;;0.80;95.10;;;;;;5021647;28;20284;-66
2023/03/05 05:58:36;;;;;;;67.43;31.88;;;0.80;94.70;;;;;;5025827;28;20206;-66
2023/03/05 06:01:10;;;;;;;42.38;19.67;;;0.80;94.30;;;;;;5033383;28;20040;-66
2023/03/05 06:03:35;;;;;;;37.10;18.80;;;0.80;95.40;;;;;;5018902;28;20112;-67
2023/03/05 06:06:01;;;;;;;39.58;19.90;;;0.90;97.20;;;;;;5016234;28;20073;-66
2023/03/05 06:08:26;;;;;;;36.13;19.85;;;1.00;98.00;;;;;;5035226;28;20400;-66
2023/03/05 06:10:54;;;;;;;39.05;20.02;;;0.90;97.20;;;;;;5025093;28;20037;-66
2023/03/05 06:13:20;;;;;;;38.03;21.15;;;0.80;96.10;;;;;;5031656;28;20422;-67
2023/03/05 06:15:55;;;;;;;38.38;20.30;;;0.90;97.10;;;;;;5030912;28;20040;-66
2023/03/05 06:18:21;;;;;;;40.08;19.30;;;1.00;97.70;;;;;;5035886;28;20095;-66
2023/03/05 06:20:56;;;;;;;38.80;18.65;;;1.00;98.00;;;;;;5030924;28;20030;-66
2023/03/05 06:23:23;;;;;;;39.45;19.85;;;0.90;98.00;;;;;;5034689;28;20114;-66
2023/03/05 06:25:48;;;;;;;36.75;18.42;;;0.90;97.80;;;;;;5042708;28;20068;-67
2023/03/05 06:28:14;;;;;;;32.47;17.70;;;0.90;97.30;;;;;;5019053;28;20033;-66
2023/03/05 06:30:39;;;;;;;36.25;17.73;;;1.00;98.00;;;;;;5028222;28;20040;-66
2023/03/05 06:33:05;;;;;;;35.20;17.95;;;1.10;98.00;;;;;;5040436;28;20064;-66
2023/03/05 06:35:36;;;;;;;37.03;18.48;;;1.10;98.00;;;;;;5031457;28;20306;-66
2023/03/05 06:38:02;;;;;;;36.70;18.38;;;1.10;98.00;;;;;;5038580;28;20091;-66
2023/03/05 06:40:27;;;;;;;41.60;19.60;;;1.00;98.00;;;;;;5023509;28;20021;-66
2023/03/05 06:42:53;;;;;;;33.95;18.30;;;1.00;98.00;;;;;;5028969;28;20492;-66
2023/03/05 06:45:18;;;;;;;38.17;18.88;;;1.00;98.00;;;;;;5038317;28;20025;-66
2023/03/05 06:47:44;;;;;;;32.72;17.23;;;1.00;97.90;;;;;;5037655;28;20034;-66
2023/03/05 06:50:10;;;;;;;35.30;17.35;;;1.10;97.90;;;;;;5032305;28;20087;-67
2023/03/05 06:52:39;;;;;;;34.88;16.98;;;1.20;98.00;;;;;;5029560;28;20056;-66
2023/03/05 06:55:05;;;;;;;35.05;16.92;;;1.30;98.00;;;;;;5027288;28;20030;-67
2023/03/05 06:57:30;;;;;;;34.08;17.00;;;1.40;98.00;;;;;;5039503;28;20055;-67
2023/03/05 06:59:56;;;;;;;31.55;17.02;;;1.40;98.00;;;;;;5023588;28;20425;-67
2023/03/05 07:02:22;;;;;;;37.00;17.70;;;1.50;98.00;;;;;;5025360;28;20025;-66
2023/03/05 07:04:47;;;;;;;34.85;16.98;;;1.50;98.00;;;;;;5026835;28;20034;-66
2023/03/05 07:07:13;;;;;;;34.83;18.50;;;1.50;97.80;;;;;;5025350;28;20067;-66
2023/03/05 07:09:41;;;;;;;38.13;17.33;;;1.50;98.00;;;;;;5031260;28;20040;-66
2023/03/05 07:12:11;;;;;;;34.95;17.55;;;1.50;97.60;;;;;;5033785;28;20033;-67
2023/03/05 07:14:37;;;;;;;35.05;17.45;;;1.50;97.80;;;;;;5029478;28;20041;-67
2023/03/05 07:17:05;;;;;;;38.40;19.63;;;1.50;97.70;;;;;;5046674;28;20120;-67
2023/03/05 07:19:31;;;;;;;35.85;18.15;;;1.50;97.80;;;;;;5017696;28;20367;-66
2023/03/05 07:21:56;;;;;;;31.70;16.83;;;1.50;97.70;;;;;;5036294;28;20108;-66
2023/03/05 07:24:26;;;;;;;34.33;17.80;;;1.60;98.00;;;;;;5033405;28;20025;-66
2023/03/05 07:26:51;;;;;;;37.97;20.63;;;1.60;97.70;;;;;;5036334;28;20025;-67
2023/03/05 07:29:17;;;;;;;36.50;19.25;;;1.80;98.00;;;;;;5031000;28;20167;-67
2023/03/05 07:31:42;;;;;;;36.40;18.25;;;1.80;98.00;;;;;;5036647;28;20033;-66
2023/03/05 07:34:10;;;;;;;42.35;19.38;;;1.90;98.00;;;;;;5039191;28;20029;-67
2023/03/05 07:36:36;;;;;;;45.85;19.73;;;2.00;98.00;;;;;;5032734;28;20034;-67
2023/03/05 07:39:06;;;;;;;38.17;20.00;;;2.10;98.00;;;;;;5027177;28;20029;-67
2023/03/05 07:41:32;;;;;;;37.65;18.15;;;2.10;98.00;;;;;;5042739;28;20346;-66
2023/03/05 07:43:57;;;;;;;35.60;18.70;;;2.10;98.00;;;;;;5032169;28;20036;-67
2023/03/05 07:46:26;;;;;;;35.53;17.25;;;2.10;98.00;;;;;;5026090;28;20032;-66
2023/03/05 07:48:55;;;;;;;37.60;18.73;;;2.10;98.00;;;;;;5032363;28;20076;-66
2023/03/05 07:51:22;;;;;;;34.13;17.60;;;2.10;98.00;;;;;;5035233;28;20021;-66
2023/03/05 07:53:56;;;;;;;41.22;19.02;;;2.10;98.00;;;;;;5034181;28;21432;-66
2023/03/05 07:56:40;;;;;;;36.17;17.10;;;2.10;98.00;;;;;;5037470;28;20037;-68
2023/03/05 07:59:09;;;;;;;31.98;17.02;;;2.20;98.00;;;;;;5035067;28;20034;-67
2023/03/05 08:01:36;;;;;;;38.22;18.27;;;2.30;98.00;;;;;;5039225;28;20025;-67
2023/03/05 08:04:03;;;;;;;34.58;16.92;;;2.50;98.00;;;;;;5036496;28;20045;-67
2023/03/05 08:06:29;;;;;;;38.70;20.40;;;2.50;98.00;;;;;;5036579;28;20026;-67
2023/03/05 08:08:54;;;;;;;40.38;19.85;;;2.50;98.00;;;;;;5036135;28;20037;-67
2023/03/05 08:11:20;;;;;;;34.85;18.42;;;2.70;98.00;;;;;;5038908;28;20025;-67
2023/03/05 08:13:46;;;;;;;38.15;19.40;;;2.70;98.00;;;;;;5034951;28;20030;-67
2023/03/05 08:16:14;;;;;;;38.05;20.15;;;2.80;98.00;;;;;;5022078;28;20025;-66
2023/03/05 08:18:40;;;;;;;41.67;20.73;;;2.80;98.00;;;;;;5033569;28;20025;-67
2023/03/05 08:21:14;;;;;;;36.08;18.60;;;2.80;98.00;;;;;;5020642;28;20029;-67
2023/03/05 08:23:39;;;;;;;40.03;19.05;;;2.80;98.00;;;;;;5030661;28;20022;-67
2023/03/05 08:26:14;;;;;;;41.38;24.33;;;2.80;98.00;;;;;;5039376;28;20036;-67
2023/03/05 08:28:40;;;;;;;40.33;22.30;;;2.80;98.00;;;;;;5039617;28;20116;-66
2023/03/05 08:31:09;;;;;;;39.80;22.77;;;2.70;98.00;;;;;;5037800;28;20462;-66
2023/03/05 08:33:38;;;;;;;38.75;20.23;;;2.60;98.00;;;;;;5040113;28;20033;-66
2023/03/05 08:36:05;;;;;;;51.60;27.50;;;2.70;98.00;;;;;;5036582;28;20083;-66
2023/03/05 08:38:30;;;;;;;38.35;19.63;;;2.80;98.00;;;;;;5037807;28;20370;-67
2023/03/05 08:40:56;;;;;;;32.80;18.02;;;2.90;98.00;;;;;;5034667;28;20029;-67
2023/03/05 08:43:21;;;;;;;40.35;19.83;;;3.00;98.00;;;;;;5034947;28;20296;-67
2023/03/05 08:45:48;;;;;;;41.00;19.50;;;2.90;98.00;;;;;;5031944;28;20032;-67
2023/03/05 08:48:19;;;;;;;33.28;18.17;;;2.90;98.00;;;;;;5030978;28;20045;-66
2023/03/05 08:50:48;;;;;;;35.05;18.35;;;2.70;98.00;;;;;;5046599;28;20028;-66
2023/03/05 08:53:14;;;;;;;39.42;19.63;;;2.60;98.00;;;;;;5037841;28;20390;-67
2023/03/05 08:55:44;;;;;;;41.22;21.50;;;2.70;98.00;;;;;;5046793;28;20100;-66
2023/03/05 08:58:09;;;;;;;42.33;22.80;;;2.80;98.00;;;;;;5017466;28;20125;-67
2023/03/05 09:00:35;;;;;;;35.30;19.20;;;2.90;98.00;;;;;;5033100;28;20125;-67
2023/03/05 09:03:01;;;;;;;46.40;24.45;;;3.00;98.00;;;;;;5025247;28;20080;-67
2023/03/05 09:05:26;;;;;;;42.88;20.23;;;3.10;98.00;;;;;;5027784;28;20052;-67
2023/03/05 09:07:52;;;;;;;34.45;19.42;;;3.10;98.00;;;;;;5029701;28;20034;-68
2023/03/05 09:10:19;;;;;;;39.58;20.67;;;3.10;98.00;;;;;;5032180;28;20026;-66
2023/03/05 09:12:45;;;;;;;46.50;22.30;;;3.20;98.00;;;;;;5032498;28;20472;-66
2023/03/05 09:15:11;;;;;;;63.92;31.20;;;3.20;97.40;;;;;;5030502;28;20108;-65
2023/03/05 09:17:38;;;;;;;77.25;39.47;;;3.30;97.30;;;;;;5037068;28;20088;-67
2023/03/05 09:20:04;;;;;;;35.70;20.00;;;3.30;97.40;;;;;;5029182;28;20021;-67
2023/03/05 09:22:30;;;;;;;32.22;17.10;;;3.40;96.90;;;;;;5041389;28;20025;-67
2023/03/05 09:24:56;;;;;;;32.80;18.67;;;3.60;96.80;;;;;;5032224;28;20437;-67
2023/03/05 09:27:22;;;;;;;34.53;18.55;;;3.80;96.00;;;;;;5042505;28;20108;-67
2023/03/05 09:29:48;;;;;;;35.92;19.80;;;3.80;95.80;;;;;;5028700;28;20036;-67
2023/03/05 09:32:13;;;;;;;29.23;17.38;;;3.80;95.20;;;;;;5030927;28;20034;-67
2023/03/05 09:34:39;;;;;;;36.65;19.27;;;3.80;95.00;;;;;;5045246;28;20033;-67
2023/03/05 09:37:04;;;;;;;34.83;18.02;;;3.90;95.20;;;;;;5034003;28;20032;-67
2023/03/05 09:39:30;;;;;;;36.90;17.65;;;4.00;95.10;;;;;;5032023;28;20100;-67
2023/03/05 09:42:39;;;;;;;33.15;17.90;;;4.10;95.20;;;;;;5035245;28;20025;-67
2023/03/05 09:45:29;;;;;;;31.33;17.33;;;4.10;94.60;;;;;;5026424;28;20018;-67
2023/03/05 09:48:03;;;;;;;33.47;17.50;;;4.20;94.00;;;;;;5031717;28;20437;-67
2023/03/05 09:50:33;;;;;;;32.17;18.13;;;4.20;93.30;;;;;;5026001;28;20602;-67
2023/03/05 09:53:05;;;;;;;32.08;17.95;;;4.10;93.70;;;;;;5032362;28;20063;-67
2023/03/05 09:55:39;;;;;;;30.77;18.67;;;4.10;93.70;;;;;;5029654;28;20033;-67
2023/03/05 09:58:12;;;;;;;33.20;17.40;;;4.30;94.00;;;;;;5032101;28;20032;-67
2023/03/05 10:00:44;;;;;;;31.58;17.60;;;4.70;93.00;;;;;;5030590;28;20025;-67
2023/03/05 10:03:24;;;;;;;34.45;17.20;;;4.90;91.70;;;;;;5018044;28;20068;-67
2023/03/05 10:05:58;;;;;;;33.88;17.83;;;4.80;91.50;;;;;;5034900;28;20025;-67
2023/03/05 10:08:31;;;;;;;36.80;18.75;;;5.00;91.70;;;;;;5030894;28;20032;-67
2023/03/05 10:10:58;;;;;;;33.70;17.95;;;5.10;91.30;;;;;;5034559;28;20500;-67
2023/03/05 10:13:33;;;;;;;35.40;18.67;;;5.20;90.90;;;;;;5031246;28;20053;-67
2023/03/05 10:16:40;;;;;;;37.60;18.48;;;5.10;91.40;;;;;;5027736;28;20026;-67
2023/03/05 10:19:12;;;;;;;33.05;17.98;;;5.00;91.20;;;;;;5018917;28;20049;-67
2023/03/05 10:22:09;;;;;;;30.70;17.23;;;4.90;91.50;;;;;;5019506;28;20033;-67
2023/03/05 10:25:00;;;;;;;35.05;18.52;;;5.20;91.20;;;;;;5020880;28;20044;-66
2023/03/05 10:27:35;;;;;;;33.05;18.92;;;5.30;91.30;;;;;;5025140;28;20014;-66
2023/03/05 10:30:27;;;;;;;37.33;19.23;;;5.30;91.00;;;;;;5021131;28;20072;-66
2023/03/05 10:33:08;;;;;;;34.38;18.00;;;5.30;90.30;;;;;;5024121;28;20063;-66
2023/03/05 10:35:51;;;;;;;31.63;17.35;;;5.50;89.80;;;;;;5035948;28;20028;-66
2023/03/05 10:38:34;;;;;;;30.97;19.07;;;5.80;89.20;;;;;;5034350;28;20038;-66
2023/03/05 10:41:51;;;;;;;28.83;16.55;;;5.80;88.50;;;;;;5029065;28;20346;-66
2023/03/05 10:44:29;;;;;;;31.08;17.50;;;5.60;88.00;;;;;;5012890;28;20431;-66
2023/03/05 10:46:57;;;;;;;30.23;17.05;;;5.30;88.50;;;;;;5015095;28;20037;-66
2023/03/05 10:49:36;;;;;;;31.48;18.20;;;5.10;88.90;;;;;;5035552;28;20044;-66
2023/03/05 10:52:14;;;;;;;30.80;17.48;;;5.20;89.40;;;;;;5035008;28;20032;-68
2023/03/05 10:54:43;;;;;;;34.72;18.67;;;5.00;88.70;;;;;;5031101;28;20033;-67
2023/03/05 10:57:11;;;;;;;35.20;17.73;;;4.90;89.80;;;;;;5045372;28;20115;-67
2023/03/05 10:59:42;;;;;;;33.13;18.23;;;5.00;89.80;;;;;;5031025;28;20064;-68
2023/03/05 11:02:08;;;;;;;28.60;17.55;;;5.30;88.60;;;;;;5027115;28;20618;-68
2023/03/05 11:04:37;;;;;;;29.67;17.33;;;5.20;87.90;;;;;;5032331;28;20425;-68
2023/03/05 11:07:13;;;;;;;32.03;17.17;;;5.20;88.10;;;;;;5036840;28;20025;-67
2023/03/05 11:09:39;;;;;;;30.40;17.42;;;5.40;88.00;;;;;;5038388;28;20033;-68
2023/03/05 11:12:12;;;;;;;31.98;16.88;;;5.30;87.50;;;;;;5032499;28;20030;-68
2023/03/05 11:15:04;;;;;;;35.42;18.58;;;5.40;88.40;;;;;;5033021;28;20033;-68
2023/03/05 11:17:49;;;;;;;30.40;18.08;;;5.60;88.20;;;;;;5026928;28;20044;-68
2023/03/05 11:20:27;;;;;;;30.75;17.48;;;5.70;87.30;;;;;;5026383;28;20053;-68
2023/03/05 11:23:02;;;;;;;29.92;17.17;;;5.70;87.30;;;;;;5033892;28;20034;-67
2023/03/05 11:25:29;;;;;;;31.00;17.65;;;5.70;86.10;;;;;;5022477;28;20038;-67
2023/03/05 11:27:57;;;;;;;33.17;18.58;;;5.30;87.00;;;;;;5029767;28;20033;-67
2023/03/05 11:30:32;;;;;;;30.52;17.30;;;5.30;87.90;;;;;;5026095;28;20040;-67
2023/03/05 11:33:19;;;;;;;35.05;17.23;;;5.30;88.50;;;;;;5033290;28;20083;-68
2023/03/05 11:35:46;;;;;;;35.13;18.85;;;5.30;87.90;;;;;;5035812;28;20104;-67
2023/03/05 11:38:25;;;;;;;33.75;18.48;;;5.60;88.40;;;;;;5027598;28;20025;-67
2023/03/05 11:40:52;;;;;;;31.30;17.80;;;5.70;87.30;;;;;;5028148;28;20029;-67
2023/03/05 11:43:22;;;;;;;29.58;16.65;;;5.60;87.10;;;;;;5034916;28;20049;-67
2023/03/05 11:45:51;;;;;;;29.17;15.82;;;5.80;86.30;;;;;;5032913;28;20021;-68
2023/03/05 11:48:43;;;;;;;29.13;16.13;;;6.20;85.00;;;;;;5035809;28;20026;-67
2023/03/05 11:51:41;;;;;;;27.35;16.65;;;6.80;84.50;;;;;;5037157;28;20049;-67
2023/03/05 11:54:11;;;;;;;27.67;17.23;;;6.90;83.10;;;;;;5032689;28;20125;-68
2023/03/05 11:56:56;;;;;;;27.52;15.77;;;6.80;82.10;;;;;;5034917;28;20040;-66
2023/03/05 11:59:32;;;;;;;28.05;16.58;;;6.70;83.00;;;;;;5024846;28;20041;-67
2023/03/05 12:01:59;;;;;;;26.45;15.63;;;6.90;82.00;;;;;;5022977;28;20124;-68
2023/03/05 12:04:26;;;;;;;34.75;17.92;;;6.50;82.40;;;;;;5032573;28;20033;-67
2023/03/05 12:07:01;;;;;;;26.20;16.10;;;6.50;82.90;;;;;;5033954;28;20478;-67
2023/03/05 12:09:39;;;;;;;33.97;15.43;;;6.20;83.20;;;;;;5032152;28;20108;-67
2023/03/05 12:12:37;;;;;;;28.67;16.55;;;6.20;83.50;;;;;;5033110;28;20029;-67
2023/03/05 12:15:21;;;;;;;21.48;12.73;;;6.40;83.70;;;;;;5024171;28;20041;-67
2023/03/05 12:18:14;;;;;;;26.67;14.27;;;6.20;81.90;;;;;;5025109;28;20030;-67
2023/03/05 12:20:59;;;;;;;27.67;15.35;;;5.80;81.10;;;;;;5027479;28;20037;-67
2023/03/05 12:23:28;;;;;;;25.77;15.30;;;5.40;83.30;;;;;;5031758;28;20500;-67
2023/03/05 12:26:00;;;;;;;27.45;14.35;;;5.10;85.40;;;;;;5028910;28;20021;-67
2023/03/05 12:28:34;;;;;;;28.25;14.10;;;4.90;85.40;;;;;;5035773;28;20036;-67
2023/03/05 12:31:24;;;;;;;23.52;12.95;;;4.70;86.20;;;;;;5021982;28;20029;-67
2023/03/05 12:33:50;;;;;;;24.33;13.65;;;4.60;86.00;;;;;;5021944;28;20045;-67
2023/03/05 12:36:22;;;;;;;24.85;13.63;;;4.70;86.00;;;;;;5018364;28;20147;-67
2023/03/05 12:38:55;;;;;;;25.42;13.98;;;4.70;85.10;;;;;;5067024;28;20075;-67
2023/03/05 12:41:24;;;;;;;26.40;14.88;;;4.60;85.20;;;;;;5031402;28;20112;-66
2023/03/05 12:44:05;;;;;;;24.48;14.68;;;4.60;85.20;;;;;;5031214;28;20056;-67
2023/03/05 12:46:37;;;;;;;27.88;14.43;;;4.60;85.80;;;;;;5030793;28;20022;-68